La rose des vents
Donnes mto: Semaine 30/05/22 - 05/06/22 (S 22)
Date Horaire Temp. E. Hum. E. P.atmo. Pluie Vent 1mn Direction Ensoleilleme Ev.Tr. Solaire P. de rose Temp au vent Rafales
30/05/2022 00:00 18,3 C 85 % 1005,4 hPa 0,0 mm 0,0 km/h (0 Bft) N 0,00 h 0,025 mm 0 W/m 15,7 C 18,3 C 0,0 km/h (0 Bft)
30/05/2022 01:00 17,7 C 88 % 1005,6 hPa 0,0 mm 0,0 km/h (0 Bft) N 0,00 h 0,025 mm 0 W/m 15,7 C 17,7 C 0,0 km/h (0 Bft)
30/05/2022 02:00 17,2 C 90 % 1005,6 hPa 0,0 mm 0,0 km/h (0 Bft) N 0,00 h 0,000 mm 0 W/m 15,6 C 17,2 C 0,0 km/h (0 Bft)
30/05/2022 03:00 16,6 C 91 % 1005,3 hPa 0,0 mm 0,0 km/h (0 Bft) N 0,00 h 0,000 mm 0 W/m 15,2 C 16,6 C 0,0 km/h (0 Bft)
30/05/2022 04:00 16,1 C 90 % 1005,6 hPa 0,0 mm 0,0 km/h (0 Bft) N 0,00 h 0,000 mm 0 W/m 14,5 C 16,1 C 0,0 km/h (0 Bft)
30/05/2022 05:00 15,9 C 88 % 1005,7 hPa 0,0 mm 0,0 km/h (0 Bft) N 0,00 h 0,000 mm 5 W/m 13,9 C 15,9 C 0,0 km/h (0 Bft)
30/05/2022 06:00 15,4 C 88 % 1006,2 hPa 0,0 mm 0,0 km/h (0 Bft) N 0,00 h 0,000 mm 17 W/m 13,4 C 15,4 C 0,0 km/h (0 Bft)
30/05/2022 07:00 15,9 C 86 % 1006,6 hPa 0,0 mm 0,0 km/h (0 Bft) N 0,00 h 0,000 mm 65 W/m 13,6 C 15,9 C 0,1 km/h (0 Bft)
30/05/2022 08:00 18,3 C 82 % 1007,0 hPa 0,0 mm 0,0 km/h (0 Bft) N 0,20 h 0,025 mm 175 W/m 15,2 C 18,3 C 0,0 km/h (0 Bft)
30/05/2022 09:00 21,1 C 75 % 1007,1 hPa 0,0 mm 0,1 km/h (0 Bft) S-SE 0,20 h 0,102 mm 273 W/m 16,4 C 21,1 C 0,2 km/h (0 Bft)
30/05/2022 10:00 22,0 C 74 % 1007,1 hPa 0,0 mm 2,3 km/h (1 Bft) S 0,23 h 0,152 mm 348 W/m 17,2 C 22,0 C 6,7 km/h (2 Bft)
30/05/2022 11:00 21,9 C 76 % 1007,4 hPa 0,0 mm 3,4 km/h (1 Bft) S 0,00 h 0,229 mm 278 W/m 17,4 C 21,9 C 8,9 km/h (2 Bft)
30/05/2022 12:00 22,9 C 73 % 1007,4 hPa 0,0 mm 1,6 km/h (1 Bft) E-SE 0,15 h 0,178 mm 360 W/m 17,8 C 22,9 C 5,7 km/h (1 Bft)
30/05/2022 13:00 23,2 C 71 % 1007,5 hPa 0,0 mm 2,6 km/h (1 Bft) E 0,22 h 0,254 mm 464 W/m 17,6 C 23,2 C 8,0 km/h (2 Bft)
30/05/2022 14:00 25,4 C 64 % 1007,6 hPa 0,0 mm 3,1 km/h (1 Bft) E 0,65 h 0,279 mm 756 W/m 18,2 C 25,4 C 9,6 km/h (2 Bft)
30/05/2022 15:00 24,1 C 67 % 1007,8 hPa 0,0 mm 3,6 km/h (1 Bft) E 0,42 h 0,483 mm 464 W/m 17,6 C 24,1 C 10,2 km/h (2 Bft)
30/05/2022 16:00 24,5 C 67 % 1008,3 hPa 0,0 mm 2,6 km/h (1 Bft) E 0,45 h 0,305 mm 432 W/m 18,0 C 24,5 C 7,4 km/h (2 Bft)
30/05/2022 17:00 22,2 C 75 % 1008,7 hPa 0,0 mm 1,3 km/h (1 Bft) E-SE 0,00 h 0,305 mm 110 W/m 17,6 C 22,2 C 4,7 km/h (1 Bft)
30/05/2022 18:00 21,0 C 80 % 1008,9 hPa 0,0 mm 0,2 km/h (0 Bft) E-SE 0,25 h 0,076 mm 162 W/m 17,3 C 21,0 C 1,1 km/h (1 Bft)
30/05/2022 19:00 21,5 C 76 % 1008,9 hPa 0,0 mm 0,0 km/h (0 Bft) N 0,70 h 0,102 mm 140 W/m 17,0 C 21,5 C 0,0 km/h (0 Bft)
30/05/2022 20:00 20,2 C 83 % 1009,4 hPa 0,0 mm 0,0 km/h (0 Bft) N 0,00 h 0,076 mm 26 W/m 17,2 C 20,2 C 0,0 km/h (0 Bft)
30/05/2022 21:00 19,0 C 86 % 1009,9 hPa 0,0 mm 0,0 km/h (0 Bft) N 0,00 h 0,025 mm 5 W/m 16,6 C 19,0 C 0,0 km/h (0 Bft)
30/05/2022 22:00 18,6 C 86 % 1011,0 hPa 0,0 mm 0,0 km/h (0 Bft) N 0,00 h 0,000 mm 0 W/m 16,2 C 18,6 C 0,0 km/h (0 Bft)
30/05/2022 23:00 17,9 C 86 % 1011,5 hPa 0,0 mm 0,0 km/h (0 Bft) N 0,00 h 0,025 mm 0 W/m 15,5 C 17,9 C 0,1 km/h (0 Bft)
31/05/2022 00:00 17,7 C 84 % 1011,6 hPa 0,0 mm 0,0 km/h (0 Bft) N 0,00 h 0,025 mm 0 W/m 15,0 C 17,7 C 0,0 km/h (0 Bft)
31/05/2022 01:00 17,5 C 85 % 1011,7 hPa 0,0 mm 0,0 km/h (0 Bft) N 0,00 h 0,025 mm 0 W/m 15,0 C 17,5 C 0,0 km/h (0 Bft)
31/05/2022 02:00 17,1 C 87 % 1011,6 hPa 0,0 mm 0,0 km/h (0 Bft) N 0,00 h 0,025 mm 0 W/m 15,0 C 17,1 C 0,0 km/h (0 Bft)
31/05/2022 03:00 16,7 C 88 % 1012,0 hPa 0,0 mm 0,0 km/h (0 Bft) N 0,00 h 0,000 mm 0 W/m 14,7 C 16,7 C 0,0 km/h (0 Bft)
31/05/2022 04:00 16,4 C 87 % 1012,1 hPa 0,0 mm 0,0 km/h (0 Bft) N 0,00 h 0,000 mm 0 W/m 14,2 C 16,4 C 0,0 km/h (0 Bft)
31/05/2022 05:00 15,9 C 87 % 1012,2 hPa 0,0 mm 0,0 km/h (0 Bft) N 0,00 h 0,000 mm 0 W/m 13,7 C 15,9 C 0,0 km/h (0 Bft)
31/05/2022 06:00 15,9 C 85 % 1012,2 hPa 0,0 mm 0,0 km/h (0 Bft) N 0,00 h 0,000 mm 22 W/m 13,5 C 15,9 C 0,2 km/h (0 Bft)
31/05/2022 07:00 16,7 C 83 % 1012,4 hPa 0,0 mm 0,0 km/h (0 Bft) N 0,00 h 0,025 mm 40 W/m 13,8 C 16,7 C 0,0 km/h (0 Bft)
31/05/2022 08:00 17,8 C 81 % 1013,3 hPa 0,0 mm 0,0 km/h (0 Bft) SE 0,07 h 0,025 mm 135 W/m 14,6 C 17,8 C 0,1 km/h (0 Bft)
31/05/2022 09:00 21,3 C 71 % 1013,3 hPa 0,0 mm 0,3 km/h (0 Bft) SE 0,57 h 0,076 mm 380 W/m 15,7 C 21,3 C 1,7 km/h (1 Bft)
31/05/2022 10:00 22,7 C 68 % 1013,0 hPa 0,0 mm 0,3 km/h (0 Bft) E-SE 0,13 h 0,229 mm 357 W/m 16,4 C 22,7 C 1,3 km/h (1 Bft)
31/05/2022 11:00 24,5 C 62 % 1013,2 hPa 0,0 mm 2,6 km/h (1 Bft) E-SE 0,70 h 0,229 mm 737 W/m 16,9 C 24,5 C 7,2 km/h (2 Bft)
31/05/2022 12:00 24,6 C 61 % 1013,5 hPa 0,0 mm 3,4 km/h (1 Bft) E 0,38 h 0,457 mm 533 W/m 16,5 C 24,6 C 9,2 km/h (2 Bft)
31/05/2022 13:00 23,7 C 63 % 1014,1 hPa 0,0 mm 3,2 km/h (1 Bft) E 0,25 h 0,356 mm 420 W/m 16,3 C 23,7 C 8,4 km/h (2 Bft)
31/05/2022 14:00 24,7 C 61 % 1014,0 hPa 0,0 mm 2,0 km/h (1 Bft) E 0,30 h 0,305 mm 505 W/m 16,8 C 24,7 C 6,5 km/h (2 Bft)
31/05/2022 15:00 24,4 C 63 % 1013,7 hPa 0,0 mm 1,6 km/h (1 Bft) E 0,17 h 0,330 mm 378 W/m 16,8 C 24,4 C 5,4 km/h (1 Bft)
31/05/2022 16:00 24,1 C 65 % 1013,3 hPa 0,0 mm 2,6 km/h (1 Bft) E 0,23 h 0,254 mm 334 W/m 17,1 C 24,1 C 7,3 km/h (2 Bft)
31/05/2022 17:00 24,3 C 65 % 1013,0 hPa 0,0 mm 1,3 km/h (1 Bft) E 0,75 h 0,254 mm 448 W/m 17,4 C 24,3 C 4,4 km/h (1 Bft)
31/05/2022 18:00 24,1 C 66 % 1012,8 hPa 0,0 mm 1,9 km/h (1 Bft) S-SE 0,92 h 0,279 mm 304 W/m 17,3 C 24,1 C 5,3 km/h (1 Bft)
31/05/2022 19:00 22,8 C 71 % 1012,9 hPa 0,0 mm 0,9 km/h (0 Bft) S-SO 0,58 h 0,203 mm 133 W/m 17,4 C 22,8 C 3,8 km/h (1 Bft)
31/05/2022 20:00 21,2 C 79 % 1013,1 hPa 0,0 mm 0,2 km/h (0 Bft) S-SO 0,00 h 0,076 mm 21 W/m 17,4 C 21,2 C 1,1 km/h (0 Bft)
31/05/2022 21:00 20,1 C 83 % 1013,3 hPa 0,0 mm 0,0 km/h (0 Bft) N 0,00 h 0,025 mm 5 W/m 17,1 C 20,1 C 0,0 km/h (0 Bft)
31/05/2022 22:00 19,1 C 86 % 1014,0 hPa 0,0 mm 0,0 km/h (0 Bft) N 0,00 h 0,000 mm 0 W/m 16,7 C 19,1 C 0,0 km/h (0 Bft)
31/05/2022 23:00 18,3 C 89 % 1014,0 hPa 0,0 mm 0,0 km/h (0 Bft) N 0,00 h 0,025 mm 0 W/m 16,5 C 18,3 C 0,0 km/h (0 Bft)
01/06/2022 00:00 17,7 C 90 % 1013,7 hPa 0,0 mm 0,0 km/h (0 Bft) N 0,00 h 0,000 mm 0 W/m 16,1 C 17,7 C 0,0 km/h (0 Bft)
01/06/2022 01:00 17,2 C 92 % 1013,6 hPa 0,0 mm 0,0 km/h (0 Bft) N 0,00 h 0,000 mm 0 W/m 15,9 C 17,2 C 0,0 km/h (0 Bft)
01/06/2022 02:00 16,9 C 94 % 1013,4 hPa 0,0 mm 0,0 km/h (0 Bft) N 0,00 h 0,000 mm 0 W/m 15,9 C 16,9 C 0,0 km/h (0 Bft)
01/06/2022 03:00 16,8 C 94 % 1013,2 hPa 0,0 mm 0,0 km/h (0 Bft) N 0,00 h 0,000 mm 0 W/m 15,8 C 16,8 C 0,0 km/h (0 Bft)
01/06/2022 04:00 16,8 C 94 % 1013,1 hPa 0,0 mm 0,0 km/h (0 Bft) N 0,00 h 0,000 mm 0 W/m 15,8 C 16,8 C 0,0 km/h (0 Bft)
01/06/2022 05:00 16,7 C 93 % 1013,2 hPa 0,0 mm 0,0 km/h (0 Bft) N 0,00 h 0,000 mm 5 W/m 15,6 C 16,7 C 0,0 km/h (0 Bft)
01/06/2022 06:00 16,4 C 94 % 1013,6 hPa 0,0 mm 0,0 km/h (0 Bft) N 0,00 h 0,000 mm 21 W/m 15,3 C 16,4 C 0,0 km/h (0 Bft)
01/06/2022 07:00 17,3 C 92 % 1014,1 hPa 0,0 mm 0,0 km/h (0 Bft) N 0,00 h 0,000 mm 31 W/m 16,0 C 17,3 C 0,0 km/h (0 Bft)
01/06/2022 08:00 19,4 C 84 % 1014,5 hPa 0,0 mm 0,2 km/h (0 Bft) S-SO 0,18 h 0,025 mm 139 W/m 16,6 C 19,4 C 0,6 km/h (0 Bft)
01/06/2022 09:00 22,9 C 75 % 1014,6 hPa 0,0 mm 1,5 km/h (1 Bft) S 1,00 h 0,076 mm 492 W/m 18,2 C 22,9 C 4,3 km/h (1 Bft)
01/06/2022 10:00 24,5 C 72 % 1014,6 hPa 0,0 mm 3,4 km/h (1 Bft) E 1,00 h 0,305 mm 663 W/m 19,1 C 24,5 C 7,6 km/h (2 Bft)
01/06/2022 11:00 25,4 C 70 % 1014,8 hPa 0,0 mm 4,1 km/h (1 Bft) E 1,00 h 0,432 mm 763 W/m 19,5 C 25,4 C 8,7 km/h (2 Bft)
01/06/2022 12:00 25,4 C 70 % 1015,1 hPa 0,0 mm 5,2 km/h (1 Bft) E 0,82 h 0,508 mm 767 W/m 19,4 C 25,4 C 11,5 km/h (2 Bft)
01/06/2022 13:00 25,8 C 69 % 1015,1 hPa 0,0 mm 4,2 km/h (1 Bft) E 0,98 h 0,508 mm 865 W/m 19,6 C 25,8 C 9,9 km/h (2 Bft)
01/06/2022 14:00 26,4 C 66 % 1014,8 hPa 0,0 mm 3,4 km/h (1 Bft) E 0,98 h 0,533 mm 816 W/m 19,5 C 26,4 C 8,5 km/h (2 Bft)
01/06/2022 15:00 26,6 C 64 % 1014,5 hPa 0,0 mm 3,2 km/h (1 Bft) E 1,00 h 0,533 mm 735 W/m 19,2 C 26,6 C 8,0 km/h (2 Bft)
01/06/2022 16:00 26,2 C 63 % 1014,6 hPa 0,0 mm 3,1 km/h (1 Bft) E 1,00 h 0,483 mm 620 W/m 18,7 C 26,2 C 8,0 km/h (2 Bft)
01/06/2022 17:00 25,4 C 66 % 1014,8 hPa 0,0 mm 2,2 km/h (1 Bft) E 1,00 h 0,406 mm 478 W/m 18,5 C 25,4 C 6,4 km/h (2 Bft)
01/06/2022 18:00 24,7 C 70 % 1014,8 hPa 0,0 mm 1,3 km/h (1 Bft) E 1,00 h 0,305 mm 318 W/m 18,9 C 24,7 C 4,4 km/h (1 Bft)
01/06/2022 19:00 23,3 C 73 % 1014,8 hPa 0,0 mm 0,1 km/h (0 Bft) E 0,73 h 0,203 mm 149 W/m 18,1 C 23,3 C 1,1 km/h (1 Bft)
01/06/2022 20:00 21,7 C 77 % 1014,9 hPa 0,0 mm 0,0 km/h (0 Bft) N 0,00 h 0,102 mm 20 W/m 17,6 C 21,7 C 0,0 km/h (0 Bft)
01/06/2022 21:00 20,4 C 82 % 1015,1 hPa 0,0 mm 0,0 km/h (0 Bft) N 0,00 h 0,025 mm 5 W/m 17,2 C 20,4 C 0,0 km/h (0 Bft)
01/06/2022 22:00 19,3 C 85 % 1015,3 hPa 0,0 mm 0,0 km/h (0 Bft) N 0,00 h 0,000 mm 0 W/m 16,8 C 19,3 C 0,0 km/h (0 Bft)
01/06/2022 23:00 18,6 C 89 % 1015,6 hPa 0,0 mm 0,0 km/h (0 Bft) N 0,00 h 0,025 mm 0 W/m 16,8 C 18,6 C 0,0 km/h (0 Bft)
02/06/2022 00:00 18,1 C 90 % 1015,6 hPa 0,0 mm 0,0 km/h (0 Bft) N 0,00 h 0,000 mm 0 W/m 16,4 C 18,1 C 0,0 km/h (0 Bft)
02/06/2022 01:00 17,5 C 90 % 1015,3 hPa 0,0 mm 0,0 km/h (0 Bft) N 0,00 h 0,000 mm 0 W/m 15,9 C 17,5 C 0,0 km/h (0 Bft)
02/06/2022 02:00 17,1 C 92 % 1015,5 hPa 0,0 mm 0,0 km/h (0 Bft) N 0,00 h 0,000 mm 0 W/m 15,8 C 17,1 C 0,0 km/h (0 Bft)
02/06/2022 03:00 16,8 C 92 % 1015,2 hPa 0,0 mm 0,0 km/h (0 Bft) N 0,00 h 0,000 mm 0 W/m 15,4 C 16,8 C 0,0 km/h (0 Bft)
02/06/2022 04:00 16,6 C 92 % 1015,3 hPa 0,0 mm 0,0 km/h (0 Bft) N 0,00 h 0,000 mm 0 W/m 15,2 C 16,6 C 0,0 km/h (0 Bft)
02/06/2022 05:00 16,7 C 93 % 1015,3 hPa 0,0 mm 0,0 km/h (0 Bft) N 0,00 h 0,000 mm 5 W/m 15,5 C 16,7 C 0,0 km/h (0 Bft)
02/06/2022 06:00 16,9 C 93 % 1015,6 hPa 0,0 mm 0,0 km/h (0 Bft) N 0,00 h 0,000 mm 22 W/m 15,7 C 16,9 C 0,0 km/h (0 Bft)
02/06/2022 07:00 17,7 C 93 % 1016,0 hPa 0,0 mm 0,0 km/h (0 Bft) N 0,00 h 0,025 mm 55 W/m 16,6 C 17,7 C 0,0 km/h (0 Bft)
02/06/2022 08:00 19,7 C 88 % 1016,3 hPa 0,0 mm 0,1 km/h (0 Bft) E 0,18 h 0,025 mm 156 W/m 17,6 C 19,7 C 0,4 km/h (0 Bft)
02/06/2022 09:00 22,6 C 78 % 1016,2 hPa 0,0 mm 1,2 km/h (1 Bft) E 0,90 h 0,102 mm 460 W/m 18,5 C 22,6 C 3,7 km/h (1 Bft)
02/06/2022 10:00 24,8 C 72 % 1015,9 hPa 0,0 mm 1,9 km/h (1 Bft) E 1,00 h 0,279 mm 640 W/m 19,4 C 24,8 C 5,5 km/h (1 Bft)
02/06/2022 11:00 25,2 C 69 % 1015,8 hPa 0,0 mm 3,9 km/h (1 Bft) E 0,98 h 0,406 mm 739 W/m 19,2 C 25,2 C 9,4 km/h (2 Bft)
02/06/2022 12:00 25,4 C 69 % 1016,0 hPa 0,0 mm 4,8 km/h (1 Bft) E 1,00 h 0,483 mm 814 W/m 19,3 C 25,4 C 10,5 km/h (2 Bft)
02/06/2022 13:00 26,4 C 61 % 1016,5 hPa 0,0 mm 2,6 km/h (1 Bft) E 1,00 h 0,533 mm 833 W/m 18,2 C 26,4 C 7,8 km/h (2 Bft)
02/06/2022 14:00 28,0 C 53 % 1016,5 hPa 0,0 mm 1,7 km/h (1 Bft) E 1,00 h 0,559 mm 811 W/m 17,5 C 28,0 C 5,6 km/h (1 Bft)
02/06/2022 15:00 29,1 C 47 % 1015,8 hPa 0,0 mm 1,5 km/h (1 Bft) E 1,00 h 0,533 mm 744 W/m 16,4 C 29,1 C 5,3 km/h (1 Bft)
02/06/2022 16:00 28,2 C 45 % 1015,4 hPa 0,0 mm 3,3 km/h (1 Bft) E 1,00 h 0,508 mm 633 W/m 15,0 C 28,2 C 8,7 km/h (2 Bft)
02/06/2022 17:00 26,9 C 50 % 1015,4 hPa 0,0 mm 2,0 km/h (1 Bft) E 1,00 h 0,457 mm 491 W/m 15,6 C 26,9 C 5,5 km/h (1 Bft)
02/06/2022 18:00 26,6 C 54 % 1015,1 hPa 0,0 mm 0,0 km/h (0 Bft) N 0,47 h 0,330 mm 240 W/m 16,6 C 26,6 C 0,4 km/h (0 Bft)
02/06/2022 19:00 25,5 C 63 % 1014,8 hPa 0,0 mm 0,0 km/h (0 Bft) N 0,22 h 0,152 mm 121 W/m 17,8 C 25,5 C 0,1 km/h (0 Bft)
02/06/2022 20:00 23,7 C 67 % 1014,6 hPa 0,0 mm 0,0 km/h (0 Bft) N 0,00 h 0,076 mm 28 W/m 17,2 C 23,7 C 0,0 km/h (0 Bft)
02/06/2022 21:00 22,0 C 70 % 1014,9 hPa 0,0 mm 0,0 km/h (0 Bft) N 0,00 h 0,025 mm 5 W/m 16,2 C 22,0 C 0,0 km/h (0 Bft)
02/06/2022 22:00 20,8 C 75 % 1015,2 hPa 0,0 mm 0,0 km/h (0 Bft) N 0,00 h 0,000 mm 0 W/m 16,1 C 20,8 C 0,0 km/h (0 Bft)
02/06/2022 23:00 20,1 C 76 % 1015,2 hPa 0,0 mm 0,0 km/h (0 Bft) N 0,00 h 0,025 mm 0 W/m 15,8 C 20,1 C 0,0 km/h (0 Bft)
03/06/2022 00:00 19,8 C 72 % 1014,9 hPa 0,0 mm 0,0 km/h (0 Bft) N 0,00 h 0,025 mm 0 W/m 14,7 C 19,8 C 0,0 km/h (0 Bft)
03/06/2022 01:00 19,8 C 69 % 1014,7 hPa 0,0 mm 0,0 km/h (0 Bft) N 0,00 h 0,025 mm 0 W/m 14,0 C 19,8 C 0,0 km/h (0 Bft)
03/06/2022 02:00 19,8 C 68 % 1015,0 hPa 0,0 mm 0,0 km/h (0 Bft) N 0,00 h 0,025 mm 0 W/m 13,7 C 19,8 C 0,0 km/h (0 Bft)
03/06/2022 03:00 20,1 C 66 % 1014,8 hPa 0,0 mm 0,0 km/h (0 Bft) N 0,00 h 0,025 mm 0 W/m 13,6 C 20,1 C 0,0 km/h (0 Bft)
03/06/2022 04:00 20,3 C 63 % 1015,0 hPa 0,0 mm 0,0 km/h (0 Bft) N 0,00 h 0,025 mm 0 W/m 13,1 C 20,3 C 0,0 km/h (0 Bft)
03/06/2022 05:00 20,2 C 63 % 1014,2 hPa 0,0 mm 0,0 km/h (0 Bft) N 0,00 h 0,025 mm 0 W/m 12,9 C 20,2 C 0,0 km/h (0 Bft)
03/06/2022 06:00 20,1 C 63 % 1014,5 hPa 0,0 mm 0,0 km/h (0 Bft) N 0,00 h 0,000 mm 13 W/m 12,7 C 20,1 C 0,0 km/h (0 Bft)
03/06/2022 07:00 20,4 C 66 % 1015,1 hPa 0,0 mm 0,0 km/h (0 Bft) N 0,00 h 0,025 mm 15 W/m 13,7 C 20,4 C 0,0 km/h (0 Bft)
03/06/2022 08:00 20,6 C 68 % 1015,1 hPa 0,0 mm 0,1 km/h (0 Bft) S 0,00 h 0,025 mm 46 W/m 14,5 C 20,6 C 0,5 km/h (0 Bft)
03/06/2022 09:00 21,2 C 68 % 1015,4 hPa 0,0 mm 0,0 km/h (0 Bft) S 0,00 h 0,025 mm 89 W/m 15,2 C 21,2 C 0,1 km/h (0 Bft)
03/06/2022 10:00 22,2 C 67 % 1016,0 hPa 0,0 mm 0,0 km/h (0 Bft) N 0,00 h 0,051 mm 70 W/m 15,8 C 22,2 C 0,0 km/h (0 Bft)
03/06/2022 11:00 21,5 C 77 % 1016,7 hPa 0,6 mm 0,7 km/h (0 Bft) O-SO 0,00 h 0,051 mm 61 W/m 17,3 C 21,5 C 2,7 km/h (1 Bft)
03/06/2022 12:00 19,9 C 90 % 1018,3 hPa 0,8 mm 0,3 km/h (0 Bft) O-SO 0,00 h 0,051 mm 126 W/m 18,2 C 19,9 C 1,4 km/h (1 Bft)
03/06/2022 13:00 20,8 C 94 % 1017,5 hPa 0,0 mm 0,0 km/h (0 Bft) N 0,00 h 0,076 mm 221 W/m 19,9 C 20,8 C 0,0 km/h (0 Bft)
03/06/2022 14:00 22,9 C 86 % 1016,8 hPa 0,0 mm 0,0 km/h (0 Bft) N 0,33 h 0,127 mm 406 W/m 20,5 C 22,9 C 0,0 km/h (0 Bft)
03/06/2022 15:00 28,4 C 60 % 1015,7 hPa 0,0 mm 0,9 km/h (0 Bft) N-NE 1,00 h 0,254 mm 714 W/m 19,7 C 28,4 C 4,7 km/h (1 Bft)
03/06/2022 16:00 29,5 C 55 % 1014,8 hPa 0,0 mm 1,9 km/h (1 Bft) E-SE 0,77 h 0,457 mm 546 W/m 19,5 C 29,5 C 6,0 km/h (2 Bft)
03/06/2022 17:00 27,5 C 59 % 1014,9 hPa 0,0 mm 2,1 km/h (1 Bft) E 0,78 h 0,381 mm 450 W/m 18,8 C 27,5 C 5,1 km/h (1 Bft)
03/06/2022 18:00 26,4 C 63 % 1015,0 hPa 0,0 mm 0,5 km/h (0 Bft) E-SE 0,67 h 0,305 mm 274 W/m 18,9 C 26,4 C 2,8 km/h (1 Bft)
03/06/2022 19:00 25,0 C 62 % 1015,7 hPa 0,0 mm 0,1 km/h (0 Bft) E 0,27 h 0,178 mm 131 W/m 17,2 C 25,0 C 0,3 km/h (0 Bft)
03/06/2022 20:00 23,8 C 62 % 1015,8 hPa 0,0 mm 0,0 km/h (0 Bft) N 0,37 h 0,076 mm 39 W/m 16,2 C 23,8 C 0,1 km/h (0 Bft)
03/06/2022 21:00 22,8 C 62 % 1015,9 hPa 0,0 mm 0,0 km/h (0 Bft) N 0,00 h 0,025 mm 15 W/m 15,1 C 22,8 C 0,0 km/h (0 Bft)
03/06/2022 22:00 22,0 C 64 % 1016,1 hPa 0,0 mm 0,0 km/h (0 Bft) N 0,00 h 0,000 mm 0 W/m 14,8 C 22,0 C 0,0 km/h (0 Bft)
03/06/2022 23:00 21,8 C 69 % 1015,9 hPa 0,0 mm 0,0 km/h (0 Bft) N 0,00 h 0,025 mm 0 W/m 15,8 C 21,8 C 0,0 km/h (0 Bft)
04/06/2022 00:00 21,1 C 75 % 1016,0 hPa 0,0 mm 0,0 km/h (0 Bft) N 0,00 h 0,025 mm 0 W/m 16,5 C 21,1 C 0,0 km/h (0 Bft)
04/06/2022 01:00 20,6 C 77 % 1016,0 hPa 0,0 mm 0,0 km/h (0 Bft) N 0,00 h 0,025 mm 0 W/m 16,4 C 20,6 C 0,0 km/h (0 Bft)
04/06/2022 02:00 20,6 C 78 % 1015,9 hPa 0,0 mm 0,0 km/h (0 Bft) N 0,00 h 0,025 mm 0 W/m 16,5 C 20,6 C 0,0 km/h (0 Bft)
04/06/2022 03:00 20,6 C 78 % 1015,5 hPa 0,0 mm 0,0 km/h (0 Bft) O-NO 0,00 h 0,025 mm 0 W/m 16,5 C 20,6 C 0,2 km/h (0 Bft)
04/06/2022 04:00 20,8 C 75 % 1015,3 hPa 0,0 mm 0,0 km/h (0 Bft) N 0,00 h 0,025 mm 0 W/m 16,1 C 20,8 C 0,0 km/h (0 Bft)
04/06/2022 05:00 21,4 C 70 % 1015,6 hPa 0,0 mm 0,0 km/h (0 Bft) N 0,00 h 0,025 mm 0 W/m 15,6 C 21,4 C 0,0 km/h (0 Bft)
04/06/2022 06:00 21,3 C 69 % 1016,0 hPa 0,0 mm 0,0 km/h (0 Bft) N 0,00 h 0,000 mm 31 W/m 15,4 C 21,3 C 0,1 km/h (0 Bft)
04/06/2022 07:00 22,1 C 69 % 1015,9 hPa 0,0 mm 0,0 km/h (0 Bft) O-NO 0,00 h 0,025 mm 80 W/m 16,3 C 22,1 C 0,3 km/h (0 Bft)
04/06/2022 08:00 24,6 C 65 % 1015,8 hPa 0,0 mm 0,0 km/h (0 Bft) N 0,27 h 0,051 mm 180 W/m 17,6 C 24,6 C 0,0 km/h (0 Bft)
04/06/2022 09:00 28,2 C 54 % 1016,1 hPa 0,0 mm 1,0 km/h (0 Bft) E-SE 0,88 h 0,127 mm 469 W/m 17,9 C 28,2 C 3,2 km/h (1 Bft)
04/06/2022 10:00 30,2 C 50 % 1016,0 hPa 0,0 mm 2,2 km/h (1 Bft) E 0,50 h 0,305 mm 472 W/m 18,6 C 30,2 C 6,2 km/h (2 Bft)
04/06/2022 11:00 28,2 C 56 % 1016,3 hPa 0,0 mm 3,1 km/h (1 Bft) E 0,43 h 0,356 mm 521 W/m 18,6 C 28,2 C 7,9 km/h (2 Bft)
04/06/2022 12:00 28,5 C 55 % 1016,4 hPa 0,0 mm 2,6 km/h (1 Bft) E 0,67 h 0,381 mm 627 W/m 18,4 C 28,5 C 7,3 km/h (2 Bft)
04/06/2022 13:00 29,2 C 56 % 1016,5 hPa 0,0 mm 2,9 km/h (1 Bft) E-SE 0,72 h 0,457 mm 703 W/m 19,4 C 29,2 C 8,2 km/h (2 Bft)
04/06/2022 14:00 29,2 C 56 % 1017,0 hPa 0,0 mm 2,1 km/h (1 Bft) E-SE 0,88 h 0,508 mm 738 W/m 19,4 C 29,2 C 6,9 km/h (2 Bft)
04/06/2022 15:00 29,1 C 58 % 1016,6 hPa 0,0 mm 2,3 km/h (1 Bft) E 0,87 h 0,508 mm 671 W/m 19,9 C 29,1 C 7,0 km/h (2 Bft)
04/06/2022 16:00 27,6 C 61 % 1016,4 hPa 0,0 mm 2,0 km/h (1 Bft) E-SE 0,77 h 0,457 mm 460 W/m 19,4 C 27,6 C 5,8 km/h (2 Bft)
04/06/2022 17:00 27,9 C 58 % 1015,7 hPa 0,0 mm 0,6 km/h (0 Bft) E 0,88 h 0,305 mm 373 W/m 18,9 C 27,9 C 2,7 km/h (1 Bft)
04/06/2022 18:00 27,6 C 58 % 1015,4 hPa 0,0 mm 0,5 km/h (0 Bft) S 0,92 h 0,254 mm 290 W/m 18,7 C 27,6 C 2,2 km/h (1 Bft)
04/06/2022 19:00 26,4 C 60 % 1015,6 hPa 0,0 mm 0,1 km/h (0 Bft) S 0,22 h 0,203 mm 111 W/m 18,1 C 26,4 C 0,4 km/h (0 Bft)
04/06/2022 20:00 24,9 C 63 % 1015,8 hPa 0,0 mm 0,1 km/h (0 Bft) S 0,08 h 0,076 mm 20 W/m 17,3 C 24,9 C 0,7 km/h (0 Bft)
04/06/2022 21:00 23,7 C 66 % 1015,3 hPa 0,0 mm 0,2 km/h (0 Bft) S-SO 0,00 h 0,025 mm 9 W/m 16,9 C 23,7 C 0,4 km/h (0 Bft)
04/06/2022 22:00 22,6 C 70 % 1015,5 hPa 0,0 mm 0,0 km/h (0 Bft) N 0,00 h 0,000 mm 0 W/m 17,0 C 22,6 C 0,0 km/h (0 Bft)
04/06/2022 23:00 22,0 C 74 % 1015,0 hPa 0,0 mm 0,0 km/h (0 Bft) N 0,00 h 0,025 mm 0 W/m 17,1 C 22,0 C 0,0 km/h (0 Bft)
05/06/2022 00:00 21,8 C 74 % 1014,3 hPa 0,0 mm 0,1 km/h (0 Bft) S-SO 0,00 h 0,025 mm 0 W/m 17,0 C 21,8 C 0,2 km/h (0 Bft)
05/06/2022 01:00 21,2 C 79 % 1014,7 hPa 0,0 mm 0,0 km/h (0 Bft) N 0,00 h 0,025 mm 0 W/m 17,4 C 21,2 C 0,0 km/h (0 Bft)
05/06/2022 02:00 20,7 C 80 % 1014,2 hPa 0,0 mm 0,0 km/h (0 Bft) N 0,00 h 0,025 mm 0 W/m 17,2 C 20,7 C 0,0 km/h (0 Bft)
05/06/2022 03:00 20,8 C 79 % 1014,6 hPa 0,0 mm 0,0 km/h (0 Bft) S-SO 0,00 h 0,025 mm 0 W/m 17,1 C 20,8 C 0,3 km/h (0 Bft)
05/06/2022 04:00 20,8 C 79 % 1014,7 hPa 0,0 mm 0,0 km/h (0 Bft) SO 0,00 h 0,025 mm 0 W/m 17,1 C 20,8 C 0,2 km/h (0 Bft)
05/06/2022 05:00 20,3 C 78 % 1013,6 hPa 0,0 mm 0,0 km/h (0 Bft) N 0,00 h 0,025 mm 5 W/m 16,3 C 20,3 C 0,0 km/h (0 Bft)
05/06/2022 06:00 19,8 C 79 % 1014,1 hPa 0,0 mm 0,0 km/h (0 Bft) N 0,00 h 0,000 mm 21 W/m 16,0 C 19,8 C 0,0 km/h (0 Bft)
05/06/2022 07:00 20,7 C 80 % 1014,9 hPa 0,0 mm 0,0 km/h (0 Bft) N 0,00 h 0,025 mm 84 W/m 17,1 C 20,7 C 0,0 km/h (0 Bft)
05/06/2022 08:00 22,9 C 80 % 1014,4 hPa 0,0 mm 0,1 km/h (0 Bft) N-NO 0,00 h 0,051 mm 147 W/m 19,2 C 22,9 C 0,7 km/h (0 Bft)
05/06/2022 09:00 25,3 C 74 % 1014,6 hPa 0,0 mm 0,5 km/h (0 Bft) E-SE 0,63 h 0,102 mm 382 W/m 20,3 C 25,3 C 1,6 km/h (1 Bft)
05/06/2022 10:00 25,9 C 74 % 1015,0 hPa 0,0 mm 1,0 km/h (0 Bft) E-SE 0,15 h 0,254 mm 362 W/m 20,9 C 25,9 C 3,8 km/h (1 Bft)
05/06/2022 11:00 25,8 C 76 % 1015,3 hPa 0,0 mm 1,0 km/h (0 Bft) E-SE 0,28 h 0,229 mm 411 W/m 21,3 C 25,8 C 4,2 km/h (1 Bft)
05/06/2022 12:00 27,1 C 71 % 1015,4 hPa 0,0 mm 2,9 km/h (1 Bft) E-SE 1,00 h 0,254 mm 750 W/m 21,3 C 27,1 C 7,6 km/h (2 Bft)
05/06/2022 13:00 28,7 C 63 % 1014,7 hPa 0,0 mm 5,4 km/h (1 Bft) E 1,00 h 0,483 mm 829 W/m 21,0 C 28,7 C 11,0 km/h (2 Bft)
05/06/2022 14:00 28,7 C 62 % 1013,9 hPa 0,0 mm 5,3 km/h (1 Bft) E 1,00 h 0,584 mm 801 W/m 20,6 C 28,7 C 11,7 km/h (2 Bft)
05/06/2022 15:00 29,3 C 64 % 1013,6 hPa 0,0 mm 4,5 km/h (1 Bft) S-SE 0,92 h 0,559 mm 697 W/m 21,8 C 29,3 C 9,5 km/h (2 Bft)
05/06/2022 16:00 29,6 C 61 % 1013,3 hPa 0,0 mm 5,8 km/h (1 Bft) S 0,95 h 0,508 mm 612 W/m 21,3 C 29,6 C 10,8 km/h (2 Bft)
05/06/2022 17:00 30,3 C 58 % 1012,8 hPa 0,0 mm 3,5 km/h (1 Bft) S-SO 1,00 h 0,432 mm 467 W/m 21,1 C 30,3 C 7,3 km/h (2 Bft)
05/06/2022 18:00 30,8 C 58 % 1012,1 hPa 0,0 mm 0,8 km/h (0 Bft) S 0,57 h 0,356 mm 261 W/m 21,4 C 30,8 C 1,9 km/h (1 Bft)
05/06/2022 19:00 28,2 C 67 % 1012,2 hPa 0,0 mm 0,0 km/h (0 Bft) N 0,45 h 0,178 mm 150 W/m 21,6 C 28,2 C 0,2 km/h (0 Bft)
05/06/2022 20:00 25,5 C 75 % 1012,6 hPa 0,0 mm 0,0 km/h (0 Bft) E 0,00 h 0,102 mm 24 W/m 20,7 C 25,5 C 0,2 km/h (0 Bft)
05/06/2022 21:00 23,6 C 71 % 1012,6 hPa 0,0 mm 1,5 km/h (1 Bft) O-SO 0,00 h 0,025 mm 5 W/m 17,8 C 23,6 C 4,4 km/h (1 Bft)
05/06/2022 22:00 25,7 C 49 % 1013,0 hPa 0,0 mm 1,4 km/h (1 Bft) O-SO 0,00 h 0,025 mm 0 W/m 14,2 C 25,7 C 5,5 km/h (1 Bft)
05/06/2022 23:00 25,2 C 53 % 1013,2 hPa 0,0 mm 0,0 km/h (0 Bft) N 0,00 h 0,051 mm 0 W/m 14,9 C 25,2 C 0,1 km/h (0 Bft)
Min-Date _ 30/05/22 02/06/22 30/05/22 - 30/05/22 - - - - 03/06/22 30/05/22 30/05/22
_ Min-Heure 06:29 16:29 00:00 - 00:00 - - - - 06:10 06:29 00:00
Minimum _ 15,3 C 42 % 1005,2 hPa - 0,0 km/h (0 Bft) - - - - 12,4 C 15,3 C 0,0 km/h (0 Bft)
Max-Date _ 05/06/22 03/06/22 03/06/22 03/06/22 02/06/22 - 02/06/22 05/06/22 31/05/22 05/06/22 05/06/22 03/06/22
_ Max-Heure 18:18 13:05 12:15 12:03 12:27 - 16:19 14:00 14:12 18:25 18:18 11:57
Maximum _ 31,3 C 95 % 1018,5 hPa 0,8 mm 12,9 km/h
E (3 Bft)
- 0,07 h 0,584 mm 1160 W/m 22,2 C 31,3 C 22,5 km/h
O-SO (4 Bft)
Moyenne _ 22,3 C 73 % 1013,7 hPa #1,4 mm 0,9 km/h (0 Bft) E #49:11 h #25,739 mm 323 W/m 17,0 C 22,3 C 2,6 km/h (1 Bft)
Roquefort les pins